createdAt,value
2019-01-14T00:00:15.712Z,4.00
2019-01-14T00:02:42.445Z,4.20
2019-01-14T00:05:09.247Z,4.30
2019-01-14T00:07:35.980Z,4.30
2019-01-14T00:10:03.156Z,4.50
2019-01-14T00:12:29.840Z,4.50
2019-01-14T00:14:56.287Z,4.30
2019-01-14T00:17:22.769Z,4.20
2019-01-14T00:19:49.329Z,4.10
2019-01-14T00:22:16.060Z,4.20
2019-01-14T00:24:42.813Z,4.20
2019-01-14T00:27:09.396Z,4.30
2019-01-14T00:29:36.183Z,4.40
2019-01-14T00:32:02.671Z,4.50
2019-01-14T00:34:29.480Z,4.40
2019-01-14T00:36:56.212Z,4.50
2019-01-14T00:39:22.913Z,4.40
2019-01-14T00:41:49.800Z,4.40
2019-01-14T00:44:16.288Z,4.50
2019-01-14T00:46:42.996Z,4.50
2019-01-14T00:49:09.952Z,4.50
2019-01-14T00:51:36.653Z,4.40
2019-01-14T00:54:03.383Z,4.40
2019-01-14T00:56:30.088Z,4.30
2019-01-14T00:58:56.668Z,4.20
2019-01-14T01:01:23.376Z,4.20
2019-01-14T01:03:50.109Z,4.20
2019-01-14T01:06:16.812Z,4.20
2019-01-14T01:08:43.548Z,4.20
2019-01-14T01:11:10.245Z,4.20
2019-01-14T01:13:36.724Z,4.10
2019-01-14T01:16:03.537Z,4.10
2019-01-14T01:18:30.455Z,4.00
2019-01-14T01:20:57.356Z,3.80
2019-01-14T01:23:23.835Z,3.70
2019-01-14T01:25:50.548Z,3.70
2019-01-14T01:28:17.513Z,3.70
2019-01-14T01:30:44.220Z,3.60
2019-01-14T01:33:10.704Z,3.50
2019-01-14T01:35:37.407Z,3.30
2019-01-14T01:38:04.132Z,3.20
2019-01-14T01:40:30.828Z,3.20
2019-01-14T01:42:57.308Z,3.10
2019-01-14T01:45:23.763Z,3.00
2019-01-14T01:47:50.528Z,3.00
2019-01-14T01:50:17.584Z,3.00
2019-01-14T01:52:44.312Z,2.90
2019-01-14T01:55:10.796Z,2.90
2019-01-14T01:57:37.251Z,3.00
2019-01-14T02:00:04.864Z,3.10
2019-01-14T02:02:31.724Z,3.20
2019-01-14T02:04:58.972Z,3.30
2019-01-14T02:07:25.472Z,3.20
2019-01-14T02:09:52.208Z,3.20
2019-01-14T02:12:18.660Z,3.10
2019-01-14T02:14:45.392Z,3.10
2019-01-14T02:17:12.048Z,3.10
2019-01-14T02:19:38.787Z,3.10
2019-01-14T02:22:05.239Z,3.10
2019-01-14T02:24:31.968Z,3.10
2019-01-14T02:26:58.452Z,3.10
2019-01-14T02:29:24.937Z,3.00
2019-01-14T02:31:51.403Z,3.00
2019-01-14T02:34:17.890Z,3.10
2019-01-14T02:36:48.645Z,3.00
2019-01-14T02:39:12.967Z,2.90
2019-01-14T02:41:39.416Z,2.90
2019-01-14T02:44:06.144Z,2.80
2019-01-14T02:46:32.827Z,2.90
2019-01-14T02:48:59.552Z,2.70
2019-01-14T02:51:26.256Z,2.60
2019-01-14T02:53:52.972Z,2.50
2019-01-14T02:56:19.671Z,2.50
2019-01-14T02:58:46.391Z,2.50
2019-01-14T03:01:13.087Z,2.70
2019-01-14T03:03:39.824Z,2.60
2019-01-14T03:06:06.282Z,2.50
2019-01-14T03:08:32.776Z,2.50
2019-01-14T03:10:59.241Z,2.60
2019-01-14T03:13:26.178Z,2.50
2019-01-14T03:15:52.656Z,2.60
2019-01-14T03:18:19.362Z,2.50
2019-01-14T03:20:46.320Z,2.60
2019-01-14T03:23:12.803Z,2.60
2019-01-14T03:25:39.284Z,2.70
2019-01-14T03:28:05.984Z,2.70
2019-01-14T03:30:32.467Z,2.70
2019-01-14T03:32:59.018Z,2.70
2019-01-14T03:35:25.948Z,2.70
2019-01-14T03:37:52.398Z,2.60
2019-01-14T03:40:18.879Z,2.60
2019-01-14T03:42:45.343Z,2.50
2019-01-14T03:45:12.068Z,2.40
2019-01-14T03:47:38.775Z,2.30
2019-01-14T03:50:06.968Z,2.30
2019-01-14T03:52:33.423Z,2.30
2019-01-14T03:55:00.185Z,2.20
2019-01-14T03:57:26.955Z,2.20
2019-01-14T03:59:53.912Z,2.10
2019-01-14T04:02:20.608Z,2.10
2019-01-14T04:04:47.589Z,2.10
2019-01-14T04:07:14.094Z,2.00
2019-01-14T04:09:40.628Z,2.00
2019-01-14T04:12:07.330Z,1.90
2019-01-14T04:14:33.815Z,1.90
2019-01-14T04:17:00.285Z,1.80
2019-01-14T04:19:27.351Z,1.80
2019-01-14T04:21:54.055Z,1.80
2019-01-14T04:24:20.794Z,1.70
2019-01-14T04:26:47.521Z,1.80
2019-01-14T04:29:14.220Z,1.80
2019-01-14T04:31:40.701Z,1.80
2019-01-14T04:34:07.632Z,1.70
2019-01-14T04:36:34.116Z,1.70
2019-01-14T04:39:01.072Z,1.70
2019-01-14T04:41:27.800Z,1.70
2019-01-14T04:43:54.484Z,1.60
2019-01-14T04:46:20.967Z,1.60
2019-01-14T04:48:47.706Z,1.60
2019-01-14T04:51:14.527Z,1.60
2019-01-14T04:53:40.983Z,1.60
2019-01-14T04:56:07.716Z,1.60
2019-01-14T04:58:34.592Z,1.60
2019-01-14T05:01:01.070Z,1.70
2019-01-14T05:03:27.524Z,1.70
2019-01-14T05:05:54.008Z,1.70
2019-01-14T05:08:20.704Z,1.70
2019-01-14T05:10:47.197Z,1.70
2019-01-14T05:13:13.647Z,1.70
2019-01-14T05:15:40.384Z,1.60
2019-01-14T05:18:07.138Z,1.60
2019-01-14T05:20:34.112Z,1.70
2019-01-14T05:23:00.909Z,1.70
2019-01-14T05:25:27.675Z,1.70
2019-01-14T05:27:54.219Z,1.70
2019-01-14T05:30:20.970Z,1.70
2019-01-14T05:32:47.681Z,1.60
2019-01-14T05:35:14.480Z,1.60
2019-01-14T05:37:41.442Z,1.60
2019-01-14T05:40:09.769Z,1.70
2019-01-14T05:42:36.248Z,1.70
2019-01-14T05:45:02.888Z,1.70
2019-01-14T05:47:29.371Z,1.70
2019-01-14T05:49:56.076Z,1.70
2019-01-14T05:52:22.802Z,1.70
2019-01-14T05:54:49.503Z,1.80
2019-01-14T05:57:16.459Z,1.80
2019-01-14T05:59:43.359Z,1.80
2019-01-14T06:02:09.940Z,1.70
2019-01-14T06:04:36.392Z,1.70
2019-01-14T06:07:02.900Z,1.70
2019-01-14T06:09:29.352Z,1.80
2019-01-14T06:11:56.075Z,1.80
2019-01-14T06:14:22.784Z,1.80
2019-01-14T06:16:49.269Z,1.80
2019-01-14T06:19:15.719Z,1.70
2019-01-14T06:21:42.570Z,1.80
2019-01-14T06:24:09.443Z,1.90
2019-01-14T06:26:35.931Z,1.90
2019-01-14T06:29:02.387Z,2.00
2019-01-14T06:31:28.876Z,2.00
2019-01-14T06:33:55.328Z,2.10
2019-01-14T06:36:22.052Z,2.10
2019-01-14T06:38:48.504Z,2.20
2019-01-14T06:41:15.232Z,2.20
2019-01-14T06:43:42.181Z,2.20
2019-01-14T06:46:08.665Z,2.10
2019-01-14T06:48:35.363Z,2.20
2019-01-14T06:51:01.847Z,2.20
2019-01-14T06:53:28.551Z,2.20
2019-01-14T06:55:55.256Z,2.20
2019-01-14T06:58:21.736Z,2.20
2019-01-14T07:00:48.199Z,2.30
2019-01-14T07:03:14.928Z,2.30
2019-01-14T07:05:41.636Z,2.30
2019-01-14T07:08:08.144Z,2.30
2019-01-14T07:10:34.599Z,2.30
2019-01-14T07:13:01.330Z,2.30
2019-01-14T07:15:27.785Z,2.20
2019-01-14T07:17:54.253Z,2.20
2019-01-14T07:20:20.952Z,2.10
2019-01-14T07:22:47.659Z,2.20
2019-01-14T07:25:14.445Z,2.10
2019-01-14T07:27:40.925Z,2.10
2019-01-14T07:30:08.984Z,2.10
2019-01-14T07:32:35.707Z,2.10
2019-01-14T07:35:02.520Z,2.10
2019-01-14T07:37:29.258Z,2.00
2019-01-14T07:39:55.707Z,1.90
2019-01-14T07:42:22.444Z,1.80
2019-01-14T07:44:48.898Z,1.90
2019-01-14T07:47:15.627Z,1.90
2019-01-14T07:49:42.334Z,1.90
2019-01-14T07:52:09.095Z,1.90
2019-01-14T07:54:35.796Z,1.90
2019-01-14T07:57:02.276Z,1.80
2019-01-14T07:59:29.208Z,1.80
2019-01-14T08:01:55.688Z,1.90
2019-01-14T08:04:22.392Z,2.00
2019-01-14T08:06:49.152Z,1.90
2019-01-14T08:09:15.855Z,2.00
2019-01-14T08:11:42.408Z,2.00
2019-01-14T08:14:09.140Z,2.10
2019-01-14T08:16:35.602Z,2.00
2019-01-14T08:19:02.284Z,1.90
2019-01-14T08:21:29.088Z,2.10
2019-01-14T08:23:55.820Z,2.20
2019-01-14T08:26:22.527Z,2.20
2019-01-14T08:28:49.264Z,2.30
2019-01-14T08:31:15.963Z,2.30
2019-01-14T08:33:42.444Z,2.40
2019-01-14T08:36:08.895Z,2.40
2019-01-14T08:38:35.852Z,2.40
2019-01-14T08:41:02.651Z,2.30
2019-01-14T08:43:31.684Z,2.30
2019-01-14T08:45:59.513Z,2.30
2019-01-14T08:48:26.494Z,2.30
2019-01-14T08:50:52.944Z,2.30
2019-01-14T08:53:19.912Z,2.30
2019-01-14T08:55:46.716Z,2.30
2019-01-14T08:58:13.452Z,2.20
2019-01-14T09:00:39.903Z,2.30
2019-01-14T09:03:06.391Z,2.20
2019-01-14T09:05:32.852Z,2.20
2019-01-14T09:07:59.717Z,2.00
2019-01-14T09:10:26.173Z,1.80
2019-01-14T09:12:52.895Z,1.60
2019-01-14T09:15:19.602Z,1.60
2019-01-14T09:17:46.099Z,1.40
2019-01-14T09:20:13.720Z,1.40
2019-01-14T09:22:40.456Z,1.30
2019-01-14T09:25:06.944Z,1.30
2019-01-14T09:27:33.670Z,1.40
2019-01-14T09:30:00.223Z,1.40
2019-01-14T09:32:27.060Z,1.50
2019-01-14T09:34:53.763Z,1.50
2019-01-14T09:37:20.526Z,1.50
2019-01-14T09:39:47.304Z,1.50
2019-01-14T09:42:14.012Z,1.50
2019-01-14T09:44:40.743Z,1.60
2019-01-14T09:47:07.195Z,1.80
2019-01-14T09:49:33.927Z,1.90
2019-01-14T09:52:00.380Z,2.10
2019-01-14T09:54:27.303Z,2.10
2019-01-14T09:56:53.752Z,2.10
2019-01-14T09:59:20.246Z,2.20
2019-01-14T10:01:46.701Z,2.20
2019-01-14T10:04:13.179Z,2.40
2019-01-14T10:06:40.712Z,2.50
2019-01-14T10:09:07.437Z,3.20
2019-01-14T10:11:34.364Z,4.20
2019-01-14T10:14:01.096Z,5.10
2019-01-14T10:16:27.799Z,6.00
2019-01-14T10:18:54.279Z,5.20
2019-01-14T10:21:20.738Z,4.30
2019-01-14T10:23:47.223Z,3.30
2019-01-14T10:26:13.918Z,2.80
2019-01-14T10:28:40.736Z,3.40
2019-01-14T10:31:07.663Z,4.40
2019-01-14T10:33:34.628Z,4.60
2019-01-14T10:36:01.344Z,4.90
2019-01-14T10:38:28.303Z,5.20
2019-01-14T10:40:54.752Z,5.60
2019-01-14T10:43:21.231Z,6.20
2019-01-14T10:45:47.936Z,5.90
2019-01-14T10:48:14.516Z,5.80
2019-01-14T10:50:41.221Z,5.90
2019-01-14T10:53:07.979Z,5.20
2019-01-14T10:55:34.938Z,4.40
2019-01-14T10:58:01.423Z,3.50
2019-01-14T11:00:27.931Z,3.20
2019-01-14T11:02:54.388Z,3.10
2019-01-14T11:05:23.088Z,2.90
2019-01-14T11:07:49.819Z,3.00
2019-01-14T11:10:16.307Z,2.90
2019-01-14T11:12:43.004Z,2.70
2019-01-14T11:15:10.676Z,2.50
2019-01-14T11:17:37.380Z,2.40
2019-01-14T11:20:04.882Z,2.30
2019-01-14T11:22:31.332Z,2.30
2019-01-14T11:24:58.160Z,2.40
2019-01-14T11:27:24.864Z,2.40
2019-01-14T11:29:53.047Z,2.50
2019-01-14T11:32:19.907Z,2.40
2019-01-14T11:34:46.386Z,2.30
2019-01-14T11:37:13.094Z,2.50
2019-01-14T11:39:39.572Z,2.90
2019-01-14T11:42:06.275Z,3.10
2019-01-14T11:44:33.000Z,2.80
2019-01-14T11:46:59.708Z,2.60
2019-01-14T11:49:26.211Z,2.50
2019-01-14T11:51:52.903Z,2.40
2019-01-14T11:54:19.635Z,2.50
2019-01-14T11:56:46.327Z,2.60
2019-01-14T11:59:12.807Z,3.00
2019-01-14T12:01:39.507Z,2.90
2019-01-14T12:04:05.992Z,2.50
2019-01-14T12:06:32.435Z,3.20
2019-01-14T12:08:58.916Z,3.80
2019-01-14T12:11:25.366Z,4.50
2019-01-14T12:13:52.101Z,5.10
2019-01-14T12:16:18.557Z,5.00
2019-01-14T12:18:45.296Z,5.40
2019-01-14T12:21:11.739Z,6.70
2019-01-14T12:23:38.476Z,5.70
2019-01-14T12:26:05.204Z,5.00
2019-01-14T12:28:31.904Z,4.00
2019-01-14T12:30:58.383Z,3.80
2019-01-14T12:33:24.835Z,3.90
2019-01-14T12:35:51.511Z,4.10
2019-01-14T12:38:17.959Z,3.60
2019-01-14T12:40:44.692Z,3.30
2019-01-14T12:43:11.147Z,4.10
2019-01-14T12:45:37.883Z,4.10
2019-01-14T12:48:04.332Z,3.40
2019-01-14T12:50:30.816Z,3.10
2019-01-14T12:52:57.263Z,3.30
2019-01-14T12:55:23.992Z,3.60
2019-01-14T12:57:50.704Z,3.40
2019-01-14T13:00:18.669Z,3.10
2019-01-14T13:02:45.635Z,3.00
2019-01-14T13:05:12.988Z,3.50
2019-01-14T13:07:39.444Z,3.70
2019-01-14T13:10:06.715Z,3.60
2019-01-14T13:12:33.420Z,3.30
2019-01-14T13:14:59.902Z,2.80
2019-01-14T13:17:26.354Z,2.80
2019-01-14T13:19:53.079Z,2.60
2019-01-14T13:22:19.535Z,2.30
2019-01-14T13:24:46.283Z,2.20
2019-01-14T13:27:12.736Z,2.10
2019-01-14T13:29:39.442Z,2.40
2019-01-14T13:32:06.181Z,2.90
2019-01-14T13:34:32.628Z,3.70
2019-01-14T13:36:59.107Z,4.60
2019-01-14T13:39:25.579Z,5.80
2019-01-14T13:41:52.399Z,6.50
2019-01-14T13:44:18.851Z,6.60
2019-01-14T13:46:45.587Z,7.30
2019-01-14T13:49:12.047Z,7.40
2019-01-14T13:51:38.779Z,6.80
2019-01-14T13:54:05.236Z,7.00
2019-01-14T13:56:31.721Z,6.20
2019-01-14T13:58:58.451Z,5.30
2019-01-14T14:01:25.304Z,4.80
2019-01-14T14:03:52.008Z,5.20
2019-01-14T14:06:18.743Z,4.40
2019-01-14T14:08:45.202Z,3.50
2019-01-14T14:11:11.683Z,3.10
2019-01-14T14:13:38.484Z,3.00
2019-01-14T14:16:04.973Z,2.60
2019-01-14T14:18:31.428Z,2.40
2019-01-14T14:20:58.175Z,2.40
2019-01-14T14:23:24.872Z,2.30
2019-01-14T14:25:51.388Z,2.20
2019-01-14T14:28:17.839Z,2.10
2019-01-14T14:30:44.572Z,2.10
2019-01-14T14:33:11.275Z,2.10
2019-01-14T14:35:37.766Z,2.10
2019-01-14T14:38:05.040Z,2.00
2019-01-14T14:40:31.523Z,1.90
2019-01-14T14:42:57.971Z,1.70
2019-01-14T14:45:24.696Z,1.20
2019-01-14T14:47:51.435Z,0.90
2019-01-14T14:50:17.892Z,0.60
2019-01-14T14:52:44.375Z,0.30
2019-01-14T14:55:11.076Z,0.10
2019-01-14T14:57:37.592Z,-0.10
2019-01-14T15:00:05.441Z,-0.20
2019-01-14T15:02:31.924Z,-0.30
2019-01-14T15:04:58.385Z,-0.40
2019-01-14T15:07:25.113Z,-0.50
2019-01-14T15:09:55.760Z,-0.60
2019-01-14T15:12:20.607Z,-0.60
2019-01-14T15:14:47.139Z,-0.60
2019-01-14T15:17:13.872Z,-0.60
2019-01-14T15:19:40.585Z,-0.70
2019-01-14T15:22:07.076Z,-0.70
2019-01-14T15:24:33.788Z,-0.70
2019-01-14T15:27:00.278Z,-0.70
2019-01-14T15:29:26.840Z,-0.70
2019-01-14T15:31:53.571Z,-0.70
2019-01-14T15:34:20.272Z,-0.70
2019-01-14T15:36:46.768Z,-0.70
2019-01-14T15:39:13.467Z,-0.70
2019-01-14T15:41:39.951Z,-0.70
2019-01-14T15:44:06.896Z,-0.70
2019-01-14T15:46:33.627Z,-0.60
2019-01-14T15:49:00.075Z,-0.60
2019-01-14T15:51:26.903Z,-0.50
2019-01-14T15:53:53.360Z,-0.40
2019-01-14T15:56:20.064Z,-0.30
2019-01-14T15:58:46.572Z,-0.30
2019-01-14T16:01:13.029Z,-0.40
2019-01-14T16:03:39.512Z,-0.50
2019-01-14T16:06:05.964Z,-0.60
2019-01-14T16:08:32.697Z,-0.70
2019-01-14T16:10:59.151Z,-0.70
2019-01-14T16:13:25.632Z,-0.70
2019-01-14T16:15:52.336Z,-0.70
2019-01-14T16:18:18.812Z,-0.60
2019-01-14T16:20:45.267Z,-0.60
2019-01-14T16:23:11.764Z,-0.60
2019-01-14T16:25:38.217Z,-0.60
2019-01-14T16:28:04.969Z,-0.60
2019-01-14T16:30:31.480Z,-0.70
2019-01-14T16:32:58.015Z,-0.70
2019-01-14T16:35:24.468Z,-0.70
2019-01-14T16:37:50.957Z,-0.60
2019-01-14T16:40:18.337Z,-0.60
2019-01-14T16:42:45.480Z,-0.60
2019-01-14T16:45:16.086Z,-0.60
2019-01-14T16:47:42.796Z,-0.70
2019-01-14T16:50:09.347Z,-0.70
2019-01-14T16:52:35.830Z,-0.70
2019-01-14T16:55:02.592Z,-0.60
2019-01-14T16:57:29.575Z,-0.60
2019-01-14T16:59:56.036Z,-0.60
2019-01-14T17:02:22.760Z,-0.60
2019-01-14T17:04:49.469Z,-0.70
2019-01-14T17:07:16.200Z,-0.70
2019-01-14T17:09:42.908Z,-0.70
2019-01-14T17:12:09.356Z,-0.70
2019-01-14T17:14:36.083Z,-0.60
2019-01-14T17:17:02.627Z,-0.60
2019-01-14T17:19:29.361Z,-0.50
2019-01-14T17:21:55.812Z,-0.50
2019-01-14T17:24:22.560Z,-0.50
2019-01-14T17:26:49.045Z,-0.50
2019-01-14T17:29:16.104Z,-0.40
2019-01-14T17:31:42.559Z,-0.40
2019-01-14T17:34:09.044Z,-0.40
2019-01-14T17:36:35.495Z,-0.40
2019-01-14T17:39:02.372Z,-0.40
2019-01-14T17:41:29.180Z,-0.40
2019-01-14T17:43:55.940Z,-0.40
2019-01-14T17:46:22.620Z,-0.50
2019-01-14T17:48:49.108Z,-0.50
2019-01-14T17:51:15.557Z,-0.50
2019-01-14T17:53:42.513Z,-0.40
2019-01-14T17:56:09.208Z,-0.50
2019-01-14T17:58:35.720Z,-0.50
2019-01-14T18:01:02.177Z,-0.40
2019-01-14T18:03:28.756Z,-0.40
2019-01-14T18:05:56.059Z,-0.30
2019-01-14T18:08:22.793Z,-0.40
2019-01-14T18:10:49.243Z,-0.40
2019-01-14T18:13:15.972Z,-0.50
2019-01-14T18:15:42.682Z,-0.50
2019-01-14T18:18:09.599Z,-0.50
2019-01-14T18:20:36.122Z,-0.50
2019-01-14T18:23:03.205Z,-0.40
2019-01-14T18:25:29.927Z,-0.50
2019-01-14T18:27:56.636Z,-0.50
2019-01-14T18:30:23.120Z,-0.40
2019-01-14T18:32:49.588Z,-0.40
2019-01-14T18:35:17.156Z,-0.50
2019-01-14T18:37:44.123Z,-0.50
2019-01-14T18:40:10.759Z,-0.40
2019-01-14T18:42:37.944Z,-0.30
2019-01-14T18:45:05.132Z,-0.30
2019-01-14T18:47:31.804Z,-0.40
2019-01-14T18:49:58.292Z,-0.30
2019-01-14T18:52:24.748Z,-0.40
2019-01-14T18:54:51.516Z,-0.50
2019-01-14T18:57:18.348Z,-0.40
2019-01-14T18:59:45.094Z,-0.30
2019-01-14T19:02:11.544Z,-0.30
2019-01-14T19:04:38.034Z,-0.30
2019-01-14T19:07:04.739Z,-0.20
2019-01-14T19:09:31.474Z,-0.30
2019-01-14T19:11:57.964Z,-0.30
2019-01-14T19:14:24.452Z,-0.30
2019-01-14T19:16:51.156Z,-0.20
2019-01-14T19:19:17.900Z,-0.20
2019-01-14T19:21:44.352Z,-0.20
2019-01-14T19:24:11.090Z,-0.20
2019-01-14T19:26:37.807Z,-0.30
2019-01-14T19:29:04.285Z,-0.30
2019-01-14T19:31:30.737Z,-0.40
2019-01-14T19:33:57.232Z,-0.30
2019-01-14T19:36:23.691Z,-0.30
2019-01-14T19:38:50.424Z,-0.30
2019-01-14T19:41:17.128Z,-0.30
2019-01-14T19:43:43.868Z,-0.30
2019-01-14T19:46:10.578Z,-0.30
2019-01-14T19:48:37.063Z,-0.20
2019-01-14T19:51:03.771Z,-0.20
2019-01-14T19:53:30.476Z,-0.20
2019-01-14T19:55:56.960Z,-0.30
2019-01-14T19:58:23.728Z,-0.30
2019-01-14T20:00:50.424Z,-0.30
2019-01-14T20:03:17.167Z,-0.40
2019-01-14T20:05:43.619Z,-0.50
2019-01-14T20:08:10.376Z,-0.50
2019-01-14T20:10:37.812Z,-0.50
2019-01-14T20:13:04.296Z,-0.50
2019-01-14T20:15:30.906Z,-0.50
2019-01-14T20:17:57.766Z,-0.40
2019-01-14T20:20:24.472Z,-0.40
2019-01-14T20:22:50.963Z,-0.40
2019-01-14T20:25:17.659Z,-0.40
2019-01-14T20:27:44.413Z,-0.30
2019-01-14T20:30:12.225Z,-0.40
2019-01-14T20:32:38.676Z,-0.40
2019-01-14T20:35:05.132Z,-0.50
2019-01-14T20:37:31.627Z,-0.50
2019-01-14T20:39:58.124Z,-0.30
2019-01-14T20:42:24.836Z,-0.20
2019-01-14T20:44:51.291Z,-0.30
2019-01-14T20:47:18.028Z,-0.30
2019-01-14T20:49:44.517Z,-0.30
2019-01-14T20:52:11.007Z,-0.40
2019-01-14T20:54:37.497Z,-0.40
2019-01-14T20:57:04.308Z,-0.30
2019-01-14T20:59:34.598Z,-0.30
2019-01-14T21:01:59.456Z,-0.30
2019-01-14T21:04:25.908Z,-0.30
2019-01-14T21:06:52.632Z,-0.40
2019-01-14T21:09:19.376Z,-0.40
2019-01-14T21:11:45.835Z,-0.40
2019-01-14T21:14:12.587Z,-0.40
2019-01-14T21:16:39.519Z,-0.30
2019-01-14T21:19:06.285Z,-0.30
2019-01-14T21:21:32.736Z,-0.30
2019-01-14T21:23:59.477Z,-0.20
2019-01-14T21:26:25.931Z,-0.10
2019-01-14T21:28:52.887Z,0.00
2019-01-14T21:31:19.346Z,0.00
2019-01-14T21:33:45.835Z,0.00
2019-01-14T21:36:12.324Z,0.00
2019-01-14T21:38:39.023Z,0.00
2019-01-14T21:41:05.516Z,0.00
2019-01-14T21:43:31.967Z,-0.20
2019-01-14T21:45:58.456Z,-0.20
2019-01-14T21:48:25.053Z,-0.20
2019-01-14T21:50:51.932Z,-0.20
2019-01-14T21:53:18.607Z,-0.10
2019-01-14T21:55:45.096Z,-0.10
2019-01-14T21:58:11.824Z,-0.10
2019-01-14T22:00:38.279Z,0.00
2019-01-14T22:03:05.003Z,0.00
2019-01-14T22:05:31.724Z,-0.10
2019-01-14T22:07:58.435Z,-0.10
2019-01-14T22:10:25.912Z,-0.10
2019-01-14T22:12:52.633Z,-0.10
2019-01-14T22:15:19.090Z,-0.10
2019-01-14T22:17:45.816Z,-0.10
2019-01-14T22:20:13.512Z,-0.10
2019-01-14T22:22:40.224Z,-0.10
2019-01-14T22:25:06.944Z,-0.10
2019-01-14T22:27:33.672Z,-0.10
2019-01-14T22:30:00.254Z,-0.10
2019-01-14T22:32:27.041Z,-0.10
2019-01-14T22:34:53.496Z,-0.20
2019-01-14T22:37:19.961Z,-0.30
2019-01-14T22:39:46.412Z,-0.30
2019-01-14T22:42:13.127Z,-0.40
2019-01-14T22:44:39.833Z,-0.50
2019-01-14T22:47:06.548Z,-0.50
2019-01-14T22:49:33.017Z,-0.60
2019-01-14T22:52:00.032Z,-0.60
2019-01-14T22:54:26.484Z,-0.60
2019-01-14T22:56:52.951Z,-0.70
2019-01-14T22:59:19.875Z,-0.70
2019-01-14T23:01:48.644Z,-0.70
2019-01-14T23:04:15.445Z,-0.70
2019-01-14T23:06:41.896Z,-0.70
2019-01-14T23:09:08.400Z,-0.70
2019-01-14T23:11:35.103Z,-0.70
2019-01-14T23:14:01.839Z,-0.70
2019-01-14T23:16:28.544Z,-0.70
2019-01-14T23:18:55.483Z,-0.70
2019-01-14T23:21:21.936Z,-0.70
2019-01-14T23:23:48.660Z,-0.70
2019-01-14T23:26:15.112Z,-0.70
2019-01-14T23:28:41.852Z,-0.70
2019-01-14T23:31:08.560Z,-0.70
2019-01-14T23:33:35.280Z,-0.70
2019-01-14T23:36:02.089Z,-0.60
2019-01-14T23:38:28.557Z,-0.60
2019-01-14T23:40:55.011Z,-0.60
2019-01-14T23:43:21.576Z,-0.60
2019-01-14T23:45:48.027Z,-0.60
2019-01-14T23:48:14.524Z,-0.60
2019-01-14T23:50:40.980Z,-0.60
2019-01-14T23:53:07.928Z,-0.60
2019-01-14T23:55:34.380Z,-0.60
2019-01-14T23:58:01.095Z,-0.70
